Terminal Aerodrome Forecast
Issued by NWS Albany, NY

Home | Current Version | Previous Version | Text Only | Print | Product List | Glossary On
Versions: 1 2 3 4 5 6 7 8 9 10 11 12
516
FTUS41 KALY 242331
TAFGFL
TAF
KGFL 242331Z 2500/2524 14004KT P6SM SCT120
     FM251300 03008KT P6SM VCSH SCT040 OVC080 WS020/12035KT
     FM251600 04010G17KT 5SM -SHRA BR BKN025 OVC040 WS020/10035KT
      AMD NOT SKED=

USA.gov is the U.S. government's official web portal to all federal, state and local government web resources and services.